createdAt,value
2023-11-07T17:34:47.628Z,3.93
2023-11-07T17:37:17.525Z,4.90
2023-11-07T17:39:47.355Z,6.27
2023-11-07T17:42:17.292Z,4.93
2023-11-07T17:44:48.683Z,6.33
2023-11-07T17:47:18.880Z,4.43
2023-11-07T17:49:51.313Z,6.87
2023-11-07T17:52:21.167Z,7.20
2023-11-07T17:54:51.233Z,6.43
2023-11-07T17:57:21.821Z,5.47
2023-11-07T17:59:55.361Z,5.23
2023-11-07T18:02:25.778Z,5.77
2023-11-07T18:04:58.419Z,5.83
2023-11-07T18:07:28.274Z,8.80
2023-11-07T18:09:58.773Z,6.33
2023-11-07T18:12:28.689Z,8.43
2023-11-07T18:14:59.066Z,6.27
2023-11-07T18:17:28.995Z,6.17
2023-11-07T18:20:02.254Z,7.53
2023-11-07T18:22:32.237Z,7.37
2023-11-07T18:25:03.971Z,7.10
2023-11-07T18:27:33.924Z,8.60
2023-11-07T18:30:03.992Z,7.87
2023-11-07T18:32:35.265Z,7.63
2023-11-07T18:35:08.528Z,8.33
2023-11-07T18:37:38.422Z,11.20
2023-11-07T18:40:10.203Z,6.03
2023-11-07T18:42:42.200Z,10.87
2023-11-07T18:45:14.825Z,8.20
2023-11-07T18:47:46.921Z,7.60
2023-11-07T18:50:20.825Z,6.83
2023-11-07T18:52:50.670Z,6.03
2023-11-07T18:55:20.566Z,4.17
2023-11-07T18:57:50.526Z,3.87
2023-11-07T19:00:22.526Z,5.40
2023-11-07T19:02:52.684Z,4.00
2023-11-07T19:05:26.548Z,2.37
2023-11-07T19:07:56.430Z,2.13
2023-11-07T19:10:27.244Z,1.63
2023-11-07T19:12:57.096Z,1.73
2023-11-07T19:15:27.216Z,2.93
2023-11-07T19:17:57.137Z,1.43
2023-11-07T19:20:31.994Z,2.87
2023-11-07T19:23:01.938Z,5.57
2023-11-07T19:25:31.800Z,5.30
2023-11-07T19:28:01.629Z,4.50
2023-11-07T19:30:31.782Z,5.63
2023-11-07T19:33:03.436Z,9.37
2023-11-07T19:35:36.029Z,6.47
2023-11-07T19:38:06.803Z,7.00
2023-11-07T19:40:36.627Z,6.83
2023-11-07T19:43:06.593Z,6.13
2023-11-07T19:45:36.584Z,6.40
2023-11-07T19:48:08.942Z,7.50
2023-11-07T19:50:41.447Z,6.47
2023-11-07T19:53:12.107Z,4.97
2023-11-07T19:55:42.632Z,6.47
2023-11-07T19:58:12.812Z,6.07
2023-11-07T20:00:44.085Z,5.73
2023-11-07T20:03:14.092Z,4.93
2023-11-07T20:05:48.442Z,5.67
2023-11-07T20:08:18.385Z,6.73
2023-11-07T20:10:48.233Z,4.70
2023-11-07T20:13:18.085Z,6.27
2023-11-07T20:15:47.926Z,6.10
2023-11-07T20:18:17.899Z,5.07
2023-11-07T20:20:50.841Z,5.00
2023-11-07T20:23:20.739Z,9.60
2023-11-07T20:25:50.570Z,4.57
2023-11-07T20:28:20.388Z,5.63
2023-11-07T20:30:51.133Z,5.00
2023-11-07T20:33:21.911Z,5.47
2023-11-07T20:35:54.474Z,5.27
2023-11-07T20:38:24.345Z,4.13
2023-11-07T20:40:54.602Z,5.03
2023-11-07T20:43:24.459Z,4.00
2023-11-07T20:45:54.376Z,4.10
2023-11-07T20:48:24.375Z,2.13
2023-11-07T20:50:57.044Z,1.63
2023-11-07T20:53:27.329Z,1.77
2023-11-07T20:55:58.973Z,1.77
2023-11-07T20:58:28.917Z,1.83
2023-11-07T21:00:58.958Z,3.47
2023-11-07T21:03:29.130Z,1.67
2023-11-07T21:06:01.974Z,2.93
2023-11-07T21:08:31.879Z,2.63
2023-11-07T21:11:01.721Z,2.07
2023-11-07T21:13:31.887Z,4.70
2023-11-07T21:16:01.851Z,4.30
2023-11-07T21:18:32.905Z,2.50
2023-11-07T21:21:05.988Z,4.13
2023-11-07T21:23:35.891Z,3.73
2023-11-07T21:26:06.016Z,3.13
2023-11-07T21:28:36.683Z,5.97
2023-11-07T21:31:07.013Z,4.10
2023-11-07T21:33:37.805Z,5.33
2023-11-07T21:36:12.308Z,4.50
2023-11-07T21:38:42.312Z,3.83
2023-11-07T21:41:12.158Z,4.90
2023-11-07T21:43:42.143Z,6.87
2023-11-07T21:46:12.041Z,4.20
2023-11-07T21:48:41.998Z,6.60
2023-11-07T21:51:14.775Z,5.00
2023-11-07T21:53:44.686Z,6.10
2023-11-07T21:56:15.001Z,6.53
2023-11-07T21:58:45.001Z,6.03
2023-11-07T22:01:14.957Z,7.83
2023-11-07T22:03:44.863Z,7.13
2023-11-07T22:06:17.921Z,6.80
2023-11-07T22:08:48.086Z,6.33
2023-11-07T22:11:17.923Z,7.80
2023-11-07T22:13:47.780Z,6.13
2023-11-07T22:16:21.356Z,4.63
2023-11-07T22:18:51.627Z,3.73
2023-11-07T22:21:24.183Z,5.27
2023-11-07T22:23:54.083Z,4.07
2023-11-07T22:26:23.944Z,3.93
2023-11-07T22:28:54.021Z,4.13
2023-11-07T22:31:23.951Z,6.90
2023-11-07T22:33:54.478Z,5.50
2023-11-07T22:36:29.941Z,6.97
2023-11-07T22:38:59.857Z,8.20
2023-11-07T22:41:29.687Z,5.73
2023-11-07T22:43:59.617Z,5.63
2023-11-07T22:46:29.447Z,6.30
2023-11-07T22:48:59.444Z,5.63
2023-11-07T22:51:33.601Z,3.87
2023-11-07T22:54:03.522Z,3.47
2023-11-07T22:56:33.444Z,3.03
2023-11-07T22:59:03.288Z,5.47
2023-11-07T23:01:34.833Z,3.00
2023-11-07T23:04:04.725Z,4.90
2023-11-07T23:06:37.307Z,2.50
2023-11-07T23:09:08.450Z,4.33
2023-11-07T23:11:35.713Z,3.37
2023-11-07T23:14:06.372Z,3.73
2023-11-07T23:16:36.614Z,2.53
2023-11-07T23:19:06.513Z,4.77
2023-11-07T23:21:40.164Z,2.80
2023-11-07T23:24:12.033Z,3.73
2023-11-07T23:26:48.031Z,2.20
2023-11-07T23:29:20.464Z,3.27
2023-11-07T23:31:52.683Z,4.57
2023-11-07T23:34:23.028Z,5.20
2023-11-07T23:36:55.755Z,3.93
2023-11-07T23:39:25.737Z,4.80
2023-11-07T23:41:55.653Z,4.90
2023-11-07T23:44:26.389Z,2.73
2023-11-07T23:46:56.953Z,4.27
2023-11-07T23:49:26.841Z,4.47
2023-11-07T23:51:59.574Z,4.03
2023-11-07T23:54:29.543Z,5.67
2023-11-07T23:56:59.563Z,4.23
2023-11-07T23:59:29.744Z,5.53
